sensor_id;sensor_type;location;lat;lon;timestamp;pressure;altitude;pressure_sealevel;temperature;humidity
65376;BME280;51976;47.332;9.404;2023-06-14T00:01:31;92217.53;;;13.48;51.22
65376;BME280;51976;47.332;9.404;2023-06-14T00:03:59;92223.00;;;13.65;50.97
65376;BME280;51976;47.332;9.404;2023-06-14T00:06:26;92223.78;;;13.74;50.83
65376;BME280;51976;47.332;9.404;2023-06-14T00:08:52;92219.00;;;13.71;50.65
65376;BME280;51976;47.332;9.404;2023-06-14T00:11:17;92222.44;;;13.37;51.35
65376;BME280;51976;47.332;9.404;2023-06-14T00:13:43;92220.28;;;13.17;51.96
65376;BME280;51976;47.332;9.404;2023-06-14T00:16:08;92221.31;;;12.99;52.54
65376;BME280;51976;47.332;9.404;2023-06-14T00:18:33;92217.72;;;13.12;52.20
65376;BME280;51976;47.332;9.404;2023-06-14T00:20:59;92214.13;;;13.25;51.92
65376;BME280;51976;47.332;9.404;2023-06-14T00:23:25;92212.91;;;13.40;51.62
65376;BME280;51976;47.332;9.404;2023-06-14T00:25:50;92201.88;;;13.28;51.34
65376;BME280;51976;47.332;9.404;2023-06-14T00:28:16;92211.03;;;12.78;52.58
65376;BME280;51976;47.332;9.404;2023-06-14T00:30:41;92196.28;;;12.53;53.35
65376;BME280;51976;47.332;9.404;2023-06-14T00:33:09;92203.66;;;12.70;53.31
65376;BME280;51976;47.332;9.404;2023-06-14T00:35:34;92210.38;;;12.73;53.37
65376;BME280;51976;47.332;9.404;2023-06-14T00:38:00;92200.41;;;12.91;52.90
65376;BME280;51976;47.332;9.404;2023-06-14T00:40:26;92200.72;;;12.89;52.73
65376;BME280;51976;47.332;9.404;2023-06-14T00:42:52;92192.78;;;12.84;53.04
65376;BME280;51976;47.332;9.404;2023-06-14T00:45:17;92200.25;;;12.56;53.44
65376;BME280;51976;47.332;9.404;2023-06-14T00:47:43;92199.31;;;12.61;53.55
65376;BME280;51976;47.332;9.404;2023-06-14T00:50:11;92214.31;;;12.67;53.34
65376;BME280;51976;47.332;9.404;2023-06-14T00:52:38;92203.97;;;12.69;53.05
65376;BME280;51976;47.332;9.404;2023-06-14T00:55:04;92198.31;;;12.79;52.62
65376;BME280;51976;47.332;9.404;2023-06-14T00:57:29;92199.97;;;12.97;52.14
65376;BME280;51976;47.332;9.404;2023-06-14T00:59:55;92193.72;;;12.88;52.43
65376;BME280;51976;47.332;9.404;2023-06-14T01:02:20;92189.78;;;12.94;52.42
65376;BME280;51976;47.332;9.404;2023-06-14T01:04:47;92193.94;;;13.00;52.24
65376;BME280;51976;47.332;9.404;2023-06-14T01:07:36;92192.88;;;13.10;52.09
65376;BME280;51976;47.332;9.404;2023-06-14T01:10:19;92197.44;;;13.01;52.36
65376;BME280;51976;47.332;9.404;2023-06-14T01:13:18;92186.81;;;12.73;53.04
65376;BME280;51976;47.332;9.404;2023-06-14T01:15:46;92194.28;;;12.68;53.26
65376;BME280;51976;47.332;9.404;2023-06-14T01:18:12;92197.56;;;12.56;53.49
65376;BME280;51976;47.332;9.404;2023-06-14T01:20:43;92197.69;;;12.51;53.59
65376;BME280;51976;47.332;9.404;2023-06-14T01:23:10;92194.88;;;12.65;53.48
65376;BME280;51976;47.332;9.404;2023-06-14T01:25:37;92180.94;;;12.71;53.00
65376;BME280;51976;47.332;9.404;2023-06-14T01:28:05;92179.31;;;12.39;53.54
65376;BME280;51976;47.332;9.404;2023-06-14T01:30:36;92183.34;;;12.19;54.30
65376;BME280;51976;47.332;9.404;2023-06-14T01:33:03;92181.13;;;12.22;54.21
65376;BME280;51976;47.332;9.404;2023-06-14T01:35:29;92178.00;;;12.28;54.18
65376;BME280;51976;47.332;9.404;2023-06-14T01:37:55;92183.88;;;12.52;53.58
65376;BME280;51976;47.332;9.404;2023-06-14T01:40:21;92176.84;;;12.51;53.59
65376;BME280;51976;47.332;9.404;2023-06-14T01:42:49;92171.09;;;12.44;53.88
65376;BME280;51976;47.332;9.404;2023-06-14T01:45:15;92174.19;;;12.29;54.19
65376;BME280;51976;47.332;9.404;2023-06-14T01:47:42;92178.59;;;12.47;53.99
65376;BME280;51976;47.332;9.404;2023-06-14T01:50:09;92177.13;;;12.72;53.22
65376;BME280;51976;47.332;9.404;2023-06-14T01:52:34;92170.59;;;12.42;53.48
65376;BME280;51976;47.332;9.404;2023-06-14T01:55:00;92176.72;;;12.26;54.11
65376;BME280;51976;47.332;9.404;2023-06-14T01:57:28;92161.25;;;12.48;53.54
65376;BME280;51976;47.332;9.404;2023-06-14T01:59:54;92165.13;;;12.65;53.07
65376;BME280;51976;47.332;9.404;2023-06-14T02:02:19;92161.34;;;12.66;52.94
65376;BME280;51976;47.332;9.404;2023-06-14T02:04:45;92158.28;;;12.59;53.10
65376;BME280;51976;47.332;9.404;2023-06-14T02:07:12;92164.88;;;12.44;53.39
65376;BME280;51976;47.332;9.404;2023-06-14T02:09:38;92161.81;;;12.37;53.52
65376;BME280;51976;47.332;9.404;2023-06-14T02:12:03;92165.38;;;12.46;53.13
65376;BME280;51976;47.332;9.404;2023-06-14T02:14:29;92157.84;;;12.12;53.66
65376;BME280;51976;47.332;9.404;2023-06-14T02:16:54;92162.28;;;11.85;54.44
65376;BME280;51976;47.332;9.404;2023-06-14T02:19:20;92160.44;;;11.95;54.49
65376;BME280;51976;47.332;9.404;2023-06-14T02:21:46;92163.88;;;12.09;54.58
65376;BME280;51976;47.332;9.404;2023-06-14T02:24:12;92164.44;;;11.97;54.84
65376;BME280;51976;47.332;9.404;2023-06-14T02:26:37;92160.69;;;11.84;55.23
65376;BME280;51976;47.332;9.404;2023-06-14T02:29:04;92159.53;;;11.99;54.88
65376;BME280;51976;47.332;9.404;2023-06-14T02:31:31;92153.91;;;12.18;54.40
65376;BME280;51976;47.332;9.404;2023-06-14T02:33:57;92163.06;;;12.08;54.71
65376;BME280;51976;47.332;9.404;2023-06-14T02:36:23;92156.06;;;12.07;54.98
65376;BME280;51976;47.332;9.404;2023-06-14T02:38:48;92164.66;;;12.09;54.72
65376;BME280;51976;47.332;9.404;2023-06-14T02:41:13;92168.94;;;12.02;54.88
65376;BME280;51976;47.332;9.404;2023-06-14T02:43:39;92178.09;;;11.78;55.40
65376;BME280;51976;47.332;9.404;2023-06-14T02:46:04;92157.72;;;11.72;55.58
65376;BME280;51976;47.332;9.404;2023-06-14T02:48:30;92168.06;;;11.93;55.12
65376;BME280;51976;47.332;9.404;2023-06-14T02:50:55;92170.44;;;11.94;55.10
65376;BME280;51976;47.332;9.404;2023-06-14T02:53:22;92180.28;;;11.76;55.60
65376;BME280;51976;47.332;9.404;2023-06-14T02:55:47;92178.50;;;11.72;55.73
65376;BME280;51976;47.332;9.404;2023-06-14T02:58:14;92187.03;;;11.51;56.20
65376;BME280;51976;47.332;9.404;2023-06-14T03:00:39;92183.31;;;11.61;55.97
65376;BME280;51976;47.332;9.404;2023-06-14T03:03:06;92177.94;;;11.61;55.93
65376;BME280;51976;47.332;9.404;2023-06-14T03:05:44;92179.25;;;11.50;56.25
65376;BME280;51976;47.332;9.404;2023-06-14T03:08:13;92177.94;;;11.61;56.03
65376;BME280;51976;47.332;9.404;2023-06-14T03:10:45;92176.00;;;11.26;56.75
65376;BME280;51976;47.332;9.404;2023-06-14T03:13:11;92188.91;;;11.01;57.39
65376;BME280;51976;47.332;9.404;2023-06-14T03:15:37;92185.13;;;11.02;57.33
65376;BME280;51976;47.332;9.404;2023-06-14T03:18:03;92177.94;;;11.11;57.11
65376;BME280;51976;47.332;9.404;2023-06-14T03:20:29;92193.31;;;10.97;57.27
65376;BME280;51976;47.332;9.404;2023-06-14T03:22:59;92191.19;;;11.35;56.67
65376;BME280;51976;47.332;9.404;2023-06-14T03:25:25;92193.09;;;11.71;55.76
65376;BME280;51976;47.332;9.404;2023-06-14T03:27:51;92188.94;;;11.51;56.00
65376;BME280;51976;47.332;9.404;2023-06-14T03:30:16;92187.78;;;11.30;56.66
65376;BME280;51976;47.332;9.404;2023-06-14T03:32:42;92184.28;;;11.29;56.60
65376;BME280;51976;47.332;9.404;2023-06-14T03:35:07;92198.56;;;11.43;56.37
65376;BME280;51976;47.332;9.404;2023-06-14T03:37:33;92198.63;;;11.52;56.26
65376;BME280;51976;47.332;9.404;2023-06-14T03:39:58;92195.63;;;11.53;56.08
65376;BME280;51976;47.332;9.404;2023-06-14T03:42:23;92202.50;;;11.73;55.64
65376;BME280;51976;47.332;9.404;2023-06-14T03:44:49;92200.72;;;11.69;55.69
65376;BME280;51976;47.332;9.404;2023-06-14T03:47:14;92206.31;;;11.72;56.08
65376;BME280;51976;47.332;9.404;2023-06-14T03:49:40;92207.78;;;11.78;55.68
65376;BME280;51976;47.332;9.404;2023-06-14T03:52:06;92195.78;;;11.84;55.60
65376;BME280;51976;47.332;9.404;2023-06-14T03:54:31;92210.06;;;11.99;55.31
65376;BME280;51976;47.332;9.404;2023-06-14T03:56:58;92206.78;;;12.10;54.86
65376;BME280;51976;47.332;9.404;2023-06-14T03:59:23;92209.28;;;12.07;54.83
65376;BME280;51976;47.332;9.404;2023-06-14T04:01:49;92223.31;;;11.73;55.74
65376;BME280;51976;47.332;9.404;2023-06-14T04:04:14;92215.59;;;11.16;57.02
65376;BME280;51976;47.332;9.404;2023-06-14T04:06:41;92223.56;;;11.22;57.08
65376;BME280;51976;47.332;9.404;2023-06-14T04:09:08;92229.34;;;11.29;56.92
65376;BME280;51976;47.332;9.404;2023-06-14T04:11:33;92230.75;;;11.26;57.10
65376;BME280;51976;47.332;9.404;2023-06-14T04:13:59;92232.34;;;11.41;57.01
65376;BME280;51976;47.332;9.404;2023-06-14T04:16:25;92235.97;;;11.36;56.95
65376;BME280;51976;47.332;9.404;2023-06-14T04:18:51;92243.16;;;11.27;56.73
65376;BME280;51976;47.332;9.404;2023-06-14T04:21:17;92238.75;;;11.31;56.63
65376;BME280;51976;47.332;9.404;2023-06-14T04:23:43;92238.03;;;11.53;56.38
65376;BME280;51976;47.332;9.404;2023-06-14T04:26:09;92243.25;;;11.36;56.58
65376;BME280;51976;47.332;9.404;2023-06-14T04:28:35;92250.50;;;11.63;56.50
65376;BME280;51976;47.332;9.404;2023-06-14T04:31:08;92239.00;;;11.71;56.67
65376;BME280;51976;47.332;9.404;2023-06-14T04:33:35;92241.09;;;11.88;56.72
65376;BME280;51976;47.332;9.404;2023-06-14T04:36:10;92247.59;;;12.23;55.90
65376;BME280;51976;47.332;9.404;2023-06-14T04:38:37;92243.88;;;12.41;55.14
65376;BME280;51976;47.332;9.404;2023-06-14T04:41:02;92241.88;;;12.46;54.63
65376;BME280;51976;47.332;9.404;2023-06-14T04:43:28;92252.19;;;12.22;55.29
65376;BME280;51976;47.332;9.404;2023-06-14T04:45:53;92254.09;;;12.44;54.78
65376;BME280;51976;47.332;9.404;2023-06-14T04:48:22;92252.44;;;12.57;54.43
65376;BME280;51976;47.332;9.404;2023-06-14T04:50:48;92258.69;;;12.66;53.83
65376;BME280;51976;47.332;9.404;2023-06-14T04:53:13;92257.69;;;12.84;53.69
65376;BME280;51976;47.332;9.404;2023-06-14T04:55:38;92255.97;;;12.66;54.09
65376;BME280;51976;47.332;9.404;2023-06-14T04:58:05;92260.66;;;12.74;54.52
65376;BME280;51976;47.332;9.404;2023-06-14T05:00:30;92255.53;;;12.72;54.36
65376;BME280;51976;47.332;9.404;2023-06-14T05:02:55;92249.44;;;12.58;54.57
65376;BME280;51976;47.332;9.404;2023-06-14T05:05:22;92249.56;;;12.84;54.25
65376;BME280;51976;47.332;9.404;2023-06-14T05:07:47;92254.22;;;13.71;51.89
65376;BME280;51976;47.332;9.404;2023-06-14T05:10:13;92258.97;;;15.12;62.85
65376;BME280;51976;47.332;9.404;2023-06-14T05:12:38;92255.91;;;15.99;56.74
65376;BME280;51976;47.332;9.404;2023-06-14T05:15:07;92251.47;;;16.15;60.05
65376;BME280;51976;47.332;9.404;2023-06-14T05:17:34;92255.88;;;16.70;57.84
65376;BME280;51976;47.332;9.404;2023-06-14T05:20:01;92247.91;;;17.55;56.51
65376;BME280;51976;47.332;9.404;2023-06-14T05:22:26;92246.34;;;18.27;54.35
65376;BME280;51976;47.332;9.404;2023-06-14T05:24:52;92249.31;;;18.22;48.66
65376;BME280;51976;47.332;9.404;2023-06-14T05:27:17;92249.25;;;18.46;50.65
65376;BME280;51976;47.332;9.404;2023-06-14T05:29:43;92251.22;;;18.86;50.26
65376;BME280;51976;47.332;9.404;2023-06-14T05:32:08;92244.53;;;18.99;42.40
65376;BME280;51976;47.332;9.404;2023-06-14T05:34:33;92249.31;;;18.10;42.68
65376;BME280;51976;47.332;9.404;2023-06-14T05:36:59;92251.16;;;17.93;42.22
65376;BME280;51976;47.332;9.404;2023-06-14T05:39:25;92250.56;;;17.88;42.56
65376;BME280;51976;47.332;9.404;2023-06-14T05:41:50;92249.06;;;18.27;41.90
65376;BME280;51976;47.332;9.404;2023-06-14T05:44:16;92249.22;;;18.58;41.31
65376;BME280;51976;47.332;9.404;2023-06-14T05:46:41;92257.53;;;18.90;40.83
65376;BME280;51976;47.332;9.404;2023-06-14T05:49:06;92258.00;;;18.92;40.71
65376;BME280;51976;47.332;9.404;2023-06-14T05:51:32;92253.75;;;19.22;39.90
65376;BME280;51976;47.332;9.404;2023-06-14T05:53:57;92255.34;;;19.23;39.25
65376;BME280;51976;47.332;9.404;2023-06-14T05:56:23;92252.50;;;19.04;39.08
65376;BME280;51976;47.332;9.404;2023-06-14T05:58:49;92261.63;;;18.96;39.61
65376;BME280;51976;47.332;9.404;2023-06-14T06:01:15;92270.47;;;18.77;39.72
65376;BME280;51976;47.332;9.404;2023-06-14T06:03:41;92262.47;;;18.08;40.72
65376;BME280;51976;47.332;9.404;2023-06-14T06:06:11;92261.47;;;18.12;40.63
65376;BME280;51976;47.332;9.404;2023-06-14T06:08:36;92265.56;;;18.31;40.88
65376;BME280;51976;47.332;9.404;2023-06-14T06:11:01;92255.63;;;18.50;40.69
65376;BME280;51976;47.332;9.404;2023-06-14T06:13:27;92263.91;;;18.94;39.82
65376;BME280;51976;47.332;9.404;2023-06-14T06:15:52;92264.09;;;18.73;39.90
65376;BME280;51976;47.332;9.404;2023-06-14T06:18:18;92270.44;;;19.33;39.41
65376;BME280;51976;47.332;9.404;2023-06-14T06:20:43;92266.13;;;19.48;39.62
65376;BME280;51976;47.332;9.404;2023-06-14T06:23:09;92269.34;;;19.06;40.11
65376;BME280;51976;47.332;9.404;2023-06-14T06:25:35;92271.97;;;19.03;40.07
65376;BME280;51976;47.332;9.404;2023-06-14T06:28:00;92277.41;;;19.31;39.40
65376;BME280;51976;47.332;9.404;2023-06-14T06:30:26;92275.47;;;19.47;39.28
65376;BME280;51976;47.332;9.404;2023-06-14T06:32:52;92261.53;;;19.64;38.45
65376;BME280;51976;47.332;9.404;2023-06-14T06:35:18;92269.53;;;19.57;38.21
65376;BME280;51976;47.332;9.404;2023-06-14T06:37:44;92269.75;;;20.31;37.41
65376;BME280;51976;47.332;9.404;2023-06-14T06:40:10;92276.06;;;20.15;37.54
65376;BME280;51976;47.332;9.404;2023-06-14T06:42:35;92280.63;;;20.27;37.10
65376;BME280;51976;47.332;9.404;2023-06-14T06:45:01;92274.03;;;20.44;36.69
65376;BME280;51976;47.332;9.404;2023-06-14T06:47:27;92279.84;;;20.77;36.21
65376;BME280;51976;47.332;9.404;2023-06-14T06:49:52;92284.69;;;20.33;36.12
65376;BME280;51976;47.332;9.404;2023-06-14T06:52:18;92276.44;;;20.65;35.15
65376;BME280;51976;47.332;9.404;2023-06-14T06:54:43;92281.03;;;20.60;35.55
65376;BME280;51976;47.332;9.404;2023-06-14T06:57:09;92275.38;;;20.53;35.44
65376;BME280;51976;47.332;9.404;2023-06-14T06:59:36;92283.31;;;20.23;36.30
65376;BME280;51976;47.332;9.404;2023-06-14T07:02:02;92282.59;;;20.42;35.89
65376;BME280;51976;47.332;9.404;2023-06-14T07:04:27;92281.63;;;20.70;36.02
65376;BME280;51976;47.332;9.404;2023-06-14T07:06:53;92281.84;;;20.29;36.57
65376;BME280;51976;47.332;9.404;2023-06-14T07:09:18;92278.78;;;20.31;36.95
65376;BME280;51976;47.332;9.404;2023-06-14T07:11:45;92278.81;;;20.15;36.69
65376;BME280;51976;47.332;9.404;2023-06-14T07:14:11;92283.97;;;20.52;36.09
65376;BME280;51976;47.332;9.404;2023-06-14T07:16:37;92281.72;;;20.73;36.47
65376;BME280;51976;47.332;9.404;2023-06-14T07:19:03;92276.53;;;20.87;36.75
65376;BME280;51976;47.332;9.404;2023-06-14T07:21:29;92293.66;;;20.65;36.46
65376;BME280;51976;47.332;9.404;2023-06-14T07:23:55;92286.69;;;20.87;36.54
65376;BME280;51976;47.332;9.404;2023-06-14T07:26:21;92281.91;;;20.65;36.29
65376;BME280;51976;47.332;9.404;2023-06-14T07:28:48;92285.78;;;20.64;35.76
65376;BME280;51976;47.332;9.404;2023-06-14T07:31:14;92288.59;;;20.48;36.60
65376;BME280;51976;47.332;9.404;2023-06-14T07:33:43;92304.66;;;20.18;37.23
65376;BME280;51976;47.332;9.404;2023-06-14T07:36:08;92298.31;;;20.14;36.93
65376;BME280;51976;47.332;9.404;2023-06-14T07:38:34;92294.88;;;20.17;37.15
65376;BME280;51976;47.332;9.404;2023-06-14T07:41:02;92296.56;;;19.90;37.05
65376;BME280;51976;47.332;9.404;2023-06-14T07:43:28;92299.72;;;20.39;36.43
65376;BME280;51976;47.332;9.404;2023-06-14T07:45:53;92308.00;;;20.27;36.94
65376;BME280;51976;47.332;9.404;2023-06-14T07:48:18;92305.56;;;20.22;36.14
65376;BME280;51976;47.332;9.404;2023-06-14T07:50:46;92297.56;;;19.54;38.35
65376;BME280;51976;47.332;9.404;2023-06-14T07:53:12;92304.84;;;19.93;38.29
65376;BME280;51976;47.332;9.404;2023-06-14T07:55:37;92302.53;;;19.80;38.39
65376;BME280;51976;47.332;9.404;2023-06-14T07:58:05;92306.09;;;19.37;38.88
65376;BME280;51976;47.332;9.404;2023-06-14T08:00:31;92301.75;;;19.64;37.00
65376;BME280;51976;47.332;9.404;2023-06-14T08:02:57;92306.06;;;19.80;36.67
65376;BME280;51976;47.332;9.404;2023-06-14T08:05:28;92306.78;;;19.77;36.71
65376;BME280;51976;47.332;9.404;2023-06-14T08:07:54;92300.59;;;19.80;36.65
65376;BME280;51976;47.332;9.404;2023-06-14T08:10:23;92300.06;;;19.59;35.68
65376;BME280;51976;47.332;9.404;2023-06-14T08:12:48;92292.56;;;19.56;37.24
65376;BME280;51976;47.332;9.404;2023-06-14T08:15:15;92305.44;;;19.71;36.75
65376;BME280;51976;47.332;9.404;2023-06-14T08:17:42;92305.09;;;19.29;37.15
65376;BME280;51976;47.332;9.404;2023-06-14T08:20:09;92305.56;;;18.91;36.94
65376;BME280;51976;47.332;9.404;2023-06-14T08:22:37;92300.81;;;19.16;37.35
65376;BME280;51976;47.332;9.404;2023-06-14T08:25:05;92322.03;;;19.35;37.68
65376;BME280;51976;47.332;9.404;2023-06-14T08:27:30;92321.06;;;19.43;37.03
65376;BME280;51976;47.332;9.404;2023-06-14T08:29:58;92316.66;;;19.66;36.13
65376;BME280;51976;47.332;9.404;2023-06-14T08:32:24;92315.50;;;19.67;36.64
65376;BME280;51976;47.332;9.404;2023-06-14T08:34:50;92318.25;;;19.67;36.87
65376;BME280;51976;47.332;9.404;2023-06-14T08:37:18;92318.59;;;19.97;36.42
65376;BME280;51976;47.332;9.404;2023-06-14T08:39:44;92322.63;;;19.56;37.26
65376;BME280;51976;47.332;9.404;2023-06-14T08:42:10;92324.00;;;19.50;37.40
65376;BME280;51976;47.332;9.404;2023-06-14T08:44:37;92319.56;;;20.05;37.49
65376;BME280;51976;47.332;9.404;2023-06-14T08:47:02;92325.59;;;19.94;37.75
65376;BME280;51976;47.332;9.404;2023-06-14T08:49:29;92325.91;;;19.62;38.23
65376;BME280;51976;47.332;9.404;2023-06-14T08:52:00;92329.69;;;19.57;38.85
65376;BME280;51976;47.332;9.404;2023-06-14T08:54:28;92347.47;;;19.51;38.64
65376;BME280;51976;47.332;9.404;2023-06-14T08:56:58;92345.19;;;19.25;39.28
65376;BME280;51976;47.332;9.404;2023-06-14T08:59:26;92336.19;;;19.96;37.80
65376;BME280;51976;47.332;9.404;2023-06-14T09:01:52;92336.78;;;19.89;38.51
65376;BME280;51976;47.332;9.404;2023-06-14T09:04:18;92336.66;;;19.70;38.77
65376;BME280;51976;47.332;9.404;2023-06-14T09:06:45;92339.59;;;19.77;38.99
65376;BME280;51976;47.332;9.404;2023-06-14T09:09:11;92339.09;;;19.87;38.41
65376;BME280;51976;47.332;9.404;2023-06-14T09:11:37;92334.78;;;20.18;38.31
65376;BME280;51976;47.332;9.404;2023-06-14T09:14:03;92327.75;;;19.73;38.31
65376;BME280;51976;47.332;9.404;2023-06-14T09:16:28;92333.25;;;20.05;38.30
65376;BME280;51976;47.332;9.404;2023-06-14T09:18:54;92333.44;;;19.96;38.45
65376;BME280;51976;47.332;9.404;2023-06-14T09:21:20;92326.91;;;20.83;36.84
65376;BME280;51976;47.332;9.404;2023-06-14T09:23:47;92322.59;;;20.82;36.21
65376;BME280;51976;47.332;9.404;2023-06-14T09:26:15;92327.84;;;20.55;36.89
65376;BME280;51976;47.332;9.404;2023-06-14T09:28:45;92331.28;;;20.68;36.90
65376;BME280;51976;47.332;9.404;2023-06-14T09:31:12;92328.81;;;20.63;36.60
65376;BME280;51976;47.332;9.404;2023-06-14T09:33:37;92329.00;;;20.54;37.54
65376;BME280;51976;47.332;9.404;2023-06-14T09:36:04;92330.84;;;20.66;36.41
65376;BME280;51976;47.332;9.404;2023-06-14T09:38:30;92331.03;;;20.73;36.55
65376;BME280;51976;47.332;9.404;2023-06-14T09:40:58;92327.09;;;21.09;36.21
65376;BME280;51976;47.332;9.404;2023-06-14T09:43:25;92318.47;;;21.46;35.39
65376;BME280;51976;47.332;9.404;2023-06-14T09:45:53;92325.59;;;21.92;35.04
65376;BME280;51976;47.332;9.404;2023-06-14T09:48:22;92326.97;;;22.25;34.29
65376;BME280;51976;47.332;9.404;2023-06-14T09:50:49;92327.69;;;21.99;34.43
65376;BME280;51976;47.332;9.404;2023-06-14T09:53:15;92324.06;;;21.95;35.21
65376;BME280;51976;47.332;9.404;2023-06-14T09:55:41;92336.09;;;21.87;34.52
65376;BME280;51976;47.332;9.404;2023-06-14T09:58:08;92334.22;;;21.30;35.04
65376;BME280;51976;47.332;9.404;2023-06-14T10:00:36;92327.69;;;22.45;34.17
65376;BME280;51976;47.332;9.404;2023-06-14T10:03:11;92325.06;;;22.52;33.07
65376;BME280;51976;47.332;9.404;2023-06-14T10:05:41;92331.72;;;21.82;32.99
65376;BME280;51976;47.332;9.404;2023-06-14T10:08:09;92330.78;;;21.36;34.55
65376;BME280;51976;47.332;9.404;2023-06-14T10:10:40;92321.22;;;21.26;34.94
65376;BME280;51976;47.332;9.404;2023-06-14T10:13:06;92325.75;;;21.57;33.75
65376;BME280;51976;47.332;9.404;2023-06-14T10:15:43;92327.56;;;21.50;33.76
65376;BME280;51976;47.332;9.404;2023-06-14T10:18:30;92336.50;;;21.47;33.97
65376;BME280;51976;47.332;9.404;2023-06-14T10:21:11;92336.94;;;21.49;33.12
65376;BME280;51976;47.332;9.404;2023-06-14T10:23:41;92336.66;;;21.54;32.81
65376;BME280;51976;47.332;9.404;2023-06-14T10:26:07;92331.16;;;21.54;33.06
65376;BME280;51976;47.332;9.404;2023-06-14T10:28:37;92335.00;;;21.49;33.18
65376;BME280;51976;47.332;9.404;2023-06-14T10:31:11;92326.78;;;21.30;33.40
65376;BME280;51976;47.332;9.404;2023-06-14T10:33:56;92338.44;;;21.46;33.26
65376;BME280;51976;47.332;9.404;2023-06-14T10:36:27;92333.41;;;21.48;33.07
65376;BME280;51976;47.332;9.404;2023-06-14T10:39:06;92333.72;;;21.66;33.53
65376;BME280;51976;47.332;9.404;2023-06-14T10:41:38;92337.16;;;22.02;32.27
65376;BME280;51976;47.332;9.404;2023-06-14T10:44:33;92333.41;;;21.90;32.05
65376;BME280;51976;47.332;9.404;2023-06-14T10:46:59;92330.88;;;22.01;32.29
65376;BME280;51976;47.332;9.404;2023-06-14T10:49:39;92327.34;;;22.01;31.95
65376;BME280;51976;47.332;9.404;2023-06-14T10:52:09;92335.28;;;21.44;32.69
65376;BME280;51976;47.332;9.404;2023-06-14T10:55:07;92332.88;;;21.62;32.07
65376;BME280;51976;47.332;9.404;2023-06-14T10:57:42;92335.78;;;21.50;32.28
65376;BME280;51976;47.332;9.404;2023-06-14T11:00:09;92328.09;;;21.78;32.94
65376;BME280;51976;47.332;9.404;2023-06-14T11:03:28;92344.22;;;21.22;33.06
65376;BME280;51976;47.332;9.404;2023-06-14T11:05:53;92333.72;;;21.85;37.08
65376;BME280;51976;47.332;9.404;2023-06-14T11:09:34;92326.25;;;21.44;32.64
65376;BME280;51976;47.332;9.404;2023-06-14T11:11:22;92320.16;;;21.73;33.06
65376;BME280;51976;47.332;9.404;2023-06-14T11:13:48;92334.78;;;22.23;32.82
65376;BME280;51976;47.332;9.404;2023-06-14T11:16:16;92331.16;;;21.96;32.22
65376;BME280;51976;47.332;9.404;2023-06-14T11:18:42;92330.13;;;21.62;32.31
65376;BME280;51976;47.332;9.404;2023-06-14T11:21:09;92338.31;;;21.58;32.56
65376;BME280;51976;47.332;9.404;2023-06-14T11:23:36;92323.03;;;21.80;32.59
65376;BME280;51976;47.332;9.404;2023-06-14T11:26:02;92331.09;;;21.50;32.47
65376;BME280;51976;47.332;9.404;2023-06-14T11:28:37;92324.63;;;21.81;31.96
65376;BME280;51976;47.332;9.404;2023-06-14T11:31:03;92324.25;;;21.60;32.46
65376;BME280;51976;47.332;9.404;2023-06-14T11:33:30;92326.75;;;21.91;32.60
65376;BME280;51976;47.332;9.404;2023-06-14T11:35:55;92328.53;;;21.80;32.13
65376;BME280;51976;47.332;9.404;2023-06-14T11:38:21;92331.03;;;22.08;31.24
65376;BME280;51976;47.332;9.404;2023-06-14T11:40:46;92324.34;;;22.32;31.16
65376;BME280;51976;47.332;9.404;2023-06-14T11:43:12;92324.34;;;22.32;32.14
65376;BME280;51976;47.332;9.404;2023-06-14T11:45:39;92318.94;;;22.13;32.30
65376;BME280;51976;47.332;9.404;2023-06-14T11:48:06;92320.88;;;22.35;31.45
65376;BME280;51976;47.332;9.404;2023-06-14T11:50:31;92332.13;;;22.04;32.59
65376;BME280;51976;47.332;9.404;2023-06-14T11:52:59;92321.41;;;21.99;31.93
65376;BME280;51976;47.332;9.404;2023-06-14T11:55:32;92334.34;;;22.21;31.98
65376;BME280;51976;47.332;9.404;2023-06-14T11:57:57;92328.41;;;22.65;30.78
65376;BME280;51976;47.332;9.404;2023-06-14T12:00:25;92326.63;;;23.02;30.09
65376;BME280;51976;47.332;9.404;2023-06-14T12:02:54;92324.38;;;22.58;31.25
65376;BME280;51976;47.332;9.404;2023-06-14T12:05:21;92319.75;;;22.62;31.33
65376;BME280;51976;47.332;9.404;2023-06-14T12:07:47;92327.50;;;22.57;31.17
65376;BME280;51976;47.332;9.404;2023-06-14T12:10:14;92327.81;;;22.52;31.25
65376;BME280;51976;47.332;9.404;2023-06-14T12:12:40;92323.69;;;22.16;30.98
65376;BME280;51976;47.332;9.404;2023-06-14T12:15:08;92323.94;;;22.07;31.81
65376;BME280;51976;47.332;9.404;2023-06-14T12:17:35;92316.47;;;21.66;31.97
65376;BME280;51976;47.332;9.404;2023-06-14T12:20:11;92329.00;;;22.05;31.65
65376;BME280;51976;47.332;9.404;2023-06-14T12:22:52;92329.97;;;22.39;31.89
65376;BME280;51976;47.332;9.404;2023-06-14T12:25:30;92321.38;;;22.18;31.60
65376;BME280;51976;47.332;9.404;2023-06-14T12:28:06;92325.28;;;21.75;31.29
65376;BME280;51976;47.332;9.404;2023-06-14T12:30:33;92317.78;;;21.94;31.12
65376;BME280;51976;47.332;9.404;2023-06-14T12:32:58;92321.78;;;22.43;31.37
65376;BME280;51976;47.332;9.404;2023-06-14T12:35:24;92328.00;;;22.17;30.82
65376;BME280;51976;47.332;9.404;2023-06-14T12:37:49;92321.78;;;22.43;30.91
65376;BME280;51976;47.332;9.404;2023-06-14T12:40:15;92316.25;;;22.16;30.79
65376;BME280;51976;47.332;9.404;2023-06-14T12:42:41;92321.63;;;22.32;31.26
65376;BME280;51976;47.332;9.404;2023-06-14T12:45:08;92316.19;;;22.36;30.63
65376;BME280;51976;47.332;9.404;2023-06-14T12:47:33;92327.00;;;22.51;30.49
65376;BME280;51976;47.332;9.404;2023-06-14T12:49:58;92324.50;;;22.66;30.06
65376;BME280;51976;47.332;9.404;2023-06-14T12:52:24;92319.13;;;23.59;29.01
65376;BME280;51976;47.332;9.404;2023-06-14T12:54:49;92320.97;;;22.91;29.41
65376;BME280;51976;47.332;9.404;2023-06-14T12:57:15;92324.44;;;22.62;29.15
65376;BME280;51976;47.332;9.404;2023-06-14T12:59:40;92326.94;;;22.48;28.60
65376;BME280;51976;47.332;9.404;2023-06-14T13:02:16;92332.09;;;22.49;28.89